createdAt,value
2022-08-12T00:02:04.157Z,18.20
2022-08-12T00:04:51.764Z,18.20
2022-08-12T00:07:38.169Z,18.20
2022-08-12T00:10:24.093Z,18.20
2022-08-12T00:13:10.282Z,18.20
2022-08-12T00:15:56.230Z,18.20
2022-08-12T00:18:42.168Z,18.10
2022-08-12T00:21:30.366Z,18.10
2022-08-12T00:24:17.181Z,18.20
2022-08-12T00:27:05.144Z,18.10
2022-08-12T00:29:51.612Z,18.10
2022-08-12T00:32:37.498Z,18.10
2022-08-12T00:35:30.784Z,18.10
2022-08-12T00:38:23.323Z,18.10
2022-08-12T00:41:09.656Z,18.20
2022-08-12T00:43:37.098Z,18.20
2022-08-12T00:46:22.951Z,18.20
2022-08-12T00:48:51.090Z,18.20
2022-08-12T00:51:19.286Z,18.20
2022-08-12T00:53:46.520Z,18.20
2022-08-12T00:56:14.215Z,18.20
2022-08-12T00:58:46.752Z,18.20
2022-08-12T01:01:14.591Z,18.10
2022-08-12T01:04:00.549Z,18.10
2022-08-12T01:06:46.543Z,18.00
2022-08-12T01:09:38.220Z,18.00
2022-08-12T01:12:06.684Z,18.00
2022-08-12T01:14:34.619Z,18.00
2022-08-12T01:17:01.851Z,18.00
2022-08-12T01:19:29.085Z,18.10
2022-08-12T01:22:16.027Z,18.10
2022-08-12T01:24:44.123Z,18.10
2022-08-12T01:27:11.559Z,18.10
2022-08-12T01:29:42.327Z,18.20
2022-08-12T01:32:11.138Z,18.20
2022-08-12T01:34:39.703Z,18.10
2022-08-12T01:37:10.200Z,18.20
2022-08-12T01:40:33.326Z,18.20
2022-08-12T01:42:28.437Z,18.10
2022-08-12T01:44:55.790Z,18.10
2022-08-12T01:47:39.406Z,18.10
2022-08-12T01:50:26.401Z,18.20
2022-08-12T01:53:11.469Z,18.30
2022-08-12T01:55:40.476Z,18.20
2022-08-12T01:58:11.734Z,18.20
2022-08-12T02:00:55.487Z,18.20
2022-08-12T02:03:31.755Z,18.20
2022-08-12T02:06:21.569Z,18.20
2022-08-12T02:09:14.804Z,18.20
2022-08-12T02:12:03.087Z,18.20
2022-08-12T02:14:51.170Z,18.20
2022-08-12T02:17:55.382Z,18.20
2022-08-12T02:20:35.335Z,18.20
2022-08-12T02:23:19.500Z,18.30
2022-08-12T02:25:47.951Z,18.20
2022-08-12T02:28:15.358Z,18.20
2022-08-12T02:30:42.755Z,18.20
2022-08-12T02:33:11.327Z,18.30
2022-08-12T02:35:39.939Z,18.20
2022-08-12T02:38:09.148Z,18.20
2022-08-12T02:40:47.738Z,18.20
2022-08-12T02:43:22.007Z,18.20
2022-08-12T02:46:04.710Z,18.20
2022-08-12T02:48:31.999Z,18.30
2022-08-12T02:51:04.181Z,18.30
2022-08-12T02:53:33.123Z,18.30
2022-08-12T02:56:02.929Z,18.30
2022-08-12T02:58:32.914Z,18.30
2022-08-12T03:01:01.734Z,18.30
2022-08-12T03:03:32.867Z,18.30
2022-08-12T03:06:06.880Z,18.30
2022-08-12T03:08:36.497Z,18.30
2022-08-12T03:11:10.144Z,18.30
2022-08-12T03:13:42.448Z,18.30
2022-08-12T03:16:09.718Z,18.30
2022-08-12T03:18:37.208Z,18.40
2022-08-12T03:21:04.729Z,18.40
2022-08-12T03:23:32.037Z,18.40
2022-08-12T03:26:00.890Z,18.40
2022-08-12T03:28:47.955Z,18.40
2022-08-12T03:31:15.300Z,18.40
2022-08-12T03:34:00.368Z,18.30
2022-08-12T03:36:28.899Z,18.40
2022-08-12T03:39:15.228Z,18.30
2022-08-12T03:41:49.922Z,18.40
2022-08-12T03:44:38.954Z,18.30
2022-08-12T03:47:35.020Z,18.30
2022-08-12T03:50:21.402Z,18.30
2022-08-12T03:53:07.247Z,18.20
2022-08-12T03:55:53.656Z,18.20
2022-08-12T03:58:39.962Z,18.20
2022-08-12T04:01:08.192Z,18.20
2022-08-12T04:03:53.755Z,18.30
2022-08-12T04:06:34.505Z,18.30
2022-08-12T04:09:14.686Z,18.30
2022-08-12T04:12:04.087Z,18.20
2022-08-12T04:14:32.093Z,18.20
2022-08-12T04:16:59.843Z,18.10
2022-08-12T04:19:27.339Z,18.00
2022-08-12T04:22:01.851Z,18.10
2022-08-12T04:24:38.085Z,18.00
2022-08-12T04:27:09.224Z,18.00
2022-08-12T04:30:29.231Z,18.00
2022-08-12T04:32:25.474Z,18.00
2022-08-12T04:34:53.049Z,18.00
2022-08-12T04:37:20.421Z,18.00
2022-08-12T04:39:48.543Z,18.10
2022-08-12T04:42:16.354Z,18.10
2022-08-12T04:44:44.602Z,18.10
2022-08-12T04:47:16.632Z,18.20
2022-08-12T04:49:45.063Z,18.20
2022-08-12T04:52:12.572Z,18.30
2022-08-12T04:54:40.027Z,18.30
2022-08-12T04:57:09.840Z,18.40
2022-08-12T04:59:48.300Z,18.40
2022-08-12T05:02:20.912Z,18.50
2022-08-12T05:04:51.046Z,18.50
2022-08-12T05:07:18.377Z,18.60
2022-08-12T05:09:58.967Z,18.60
2022-08-12T05:12:37.318Z,18.70
2022-08-12T05:15:12.743Z,18.80
2022-08-12T05:17:47.270Z,18.80
2022-08-12T05:20:15.984Z,18.80
2022-08-12T05:22:46.499Z,18.80
2022-08-12T05:25:15.900Z,18.80
2022-08-12T05:27:55.494Z,18.80
2022-08-12T05:30:27.525Z,18.90
2022-08-12T05:32:58.981Z,18.90
2022-08-12T05:35:27.871Z,19.00
2022-08-12T05:38:15.125Z,18.90
2022-08-12T05:40:42.441Z,19.00
2022-08-12T05:43:09.766Z,19.00
2022-08-12T05:45:41.580Z,19.10
2022-08-12T05:48:11.686Z,19.10
2022-08-12T05:50:39.050Z,19.20
2022-08-12T05:53:07.185Z,19.20
2022-08-12T05:55:35.158Z,19.30
2022-08-12T05:58:03.254Z,19.30
2022-08-12T06:00:32.062Z,19.30
2022-08-12T06:03:02.449Z,19.30
2022-08-12T06:05:30.610Z,19.30
2022-08-12T06:08:01.836Z,19.20
2022-08-12T06:10:32.796Z,19.20
2022-08-12T06:13:04.568Z,19.20
2022-08-12T06:15:33.156Z,19.20
2022-08-12T06:18:13.864Z,19.10
2022-08-12T06:20:43.883Z,19.10
2022-08-12T06:23:12.029Z,19.10
2022-08-12T06:25:39.438Z,19.10
2022-08-12T06:28:15.713Z,19.00
2022-08-12T06:31:08.194Z,19.00
2022-08-12T06:34:00.383Z,18.90
2022-08-12T06:36:25.264Z,18.90
2022-08-12T06:38:57.496Z,18.80
2022-08-12T06:42:04.868Z,18.80
2022-08-12T06:44:31.450Z,18.70
2022-08-12T06:46:58.896Z,18.70
2022-08-12T06:49:26.278Z,18.60
2022-08-12T06:51:56.784Z,18.60
2022-08-12T06:54:29.829Z,18.60
2022-08-12T06:58:08.149Z,18.60
2022-08-12T07:07:19.290Z,18.20
2022-08-12T07:10:03.957Z,17.80
2022-08-12T07:12:34.462Z,17.60
2022-08-12T07:15:02.327Z,17.60
2022-08-12T07:17:36.461Z,17.50
2022-08-12T07:20:29.495Z,17.50
2022-08-12T07:22:58.735Z,17.40
2022-08-12T07:25:37.702Z,17.40
2022-08-12T07:28:08.992Z,17.40
2022-08-12T07:30:45.528Z,17.40
2022-08-12T07:33:13.725Z,17.40
2022-08-12T07:35:50.882Z,17.40
2022-08-12T07:38:36.097Z,17.40
2022-08-12T07:41:15.615Z,17.50
2022-08-12T07:44:03.867Z,17.60
2022-08-12T07:46:39.482Z,17.50
2022-08-12T07:49:10.555Z,17.60
2022-08-12T07:51:38.614Z,17.60
2022-08-12T07:54:09.857Z,17.50
2022-08-12T07:56:39.943Z,17.50
2022-08-12T07:59:08.742Z,17.50
2022-08-12T08:01:38.213Z,17.60
2022-08-12T08:04:24.956Z,17.60
2022-08-12T08:06:52.728Z,17.60
2022-08-12T08:09:23.046Z,17.60
2022-08-12T08:12:10.055Z,17.70
2022-08-12T08:14:49.845Z,17.70
2022-08-12T08:17:18.150Z,17.70
2022-08-12T08:20:03.081Z,17.70
2022-08-12T08:22:41.590Z,17.70
2022-08-12T08:25:34.517Z,17.70
2022-08-12T08:28:01.265Z,17.80
2022-08-12T08:30:30.941Z,17.80
2022-08-12T08:32:58.948Z,17.80
2022-08-12T08:35:37.785Z,17.90
2022-08-12T08:38:30.091Z,18.00
2022-08-12T08:42:16.226Z,18.00
2022-08-12T08:44:06.944Z,18.20
2022-08-12T08:46:38.113Z,18.30
2022-08-12T08:49:06.539Z,18.40
2022-08-12T08:51:34.632Z,18.50
2022-08-12T08:54:02.263Z,18.60
2022-08-12T08:56:30.491Z,18.70
2022-08-12T08:58:58.388Z,18.80
2022-08-12T09:01:38.037Z,18.90
2022-08-12T09:05:11.821Z,19.10
2022-08-12T09:06:58.666Z,19.10
2022-08-12T09:12:36.093Z,19.30
2022-08-12T09:17:56.916Z,19.20
2022-08-12T09:20:30.957Z,19.30
2022-08-12T09:22:59.029Z,19.30
2022-08-12T09:25:33.316Z,19.30
2022-08-12T09:28:18.208Z,19.30
2022-08-12T09:30:48.740Z,19.40
2022-08-12T09:33:19.170Z,19.50
2022-08-12T09:36:05.502Z,19.70
2022-08-12T09:38:35.331Z,19.70
2022-08-12T09:42:35.152Z,19.70
2022-08-12T09:44:37.978Z,19.80
2022-08-12T09:46:59.003Z,19.90
2022-08-12T09:49:27.950Z,20.10
2022-08-12T09:51:55.816Z,20.20
2022-08-12T09:54:33.522Z,20.30
2022-08-12T09:58:45.162Z,20.30
2022-08-12T10:00:17.030Z,20.30
2022-08-12T10:03:05.825Z,20.50
2022-08-12T10:06:26.415Z,20.80
2022-08-12T10:08:30.667Z,20.80
2022-08-12T10:11:20.622Z,20.80
2022-08-12T10:13:50.256Z,20.80
2022-08-12T10:16:22.473Z,20.80
2022-08-12T10:19:00.003Z,20.80
2022-08-12T10:21:37.375Z,20.70
2022-08-12T10:24:07.309Z,20.60
2022-08-12T10:26:55.451Z,20.60
2022-08-12T10:30:37.889Z,20.40
2022-08-12T10:32:43.938Z,20.20
2022-08-12T10:35:15.693Z,20.00
2022-08-12T10:38:39.155Z,20.00
2022-08-12T10:40:36.287Z,20.00
2022-08-12T10:43:24.003Z,19.90
2022-08-12T10:45:51.979Z,20.00
2022-08-12T10:48:27.056Z,20.00
2022-08-12T10:51:52.360Z,20.10
2022-08-12T10:54:00.902Z,20.10
2022-08-12T10:56:35.412Z,20.20
2022-08-12T10:59:05.594Z,20.30
2022-08-12T11:04:14.628Z,20.40
2022-08-12T11:04:44.832Z,20.40
2022-08-12T11:08:36.372Z,20.40
2022-08-12T11:10:05.741Z,20.50
2022-08-12T11:12:54.658Z,20.50
2022-08-12T11:15:32.879Z,20.60
2022-08-12T11:18:18.763Z,20.50
2022-08-12T11:20:48.242Z,20.60
2022-08-12T11:23:25.601Z,20.60
2022-08-12T11:26:06.533Z,20.50
2022-08-12T11:28:37.589Z,20.50
2022-08-12T11:31:14.043Z,20.50
2022-08-12T11:34:05.750Z,20.40
2022-08-12T11:36:31.005Z,20.40
2022-08-12T11:39:04.159Z,20.40
2022-08-12T11:41:34.832Z,20.50
2022-08-12T11:44:35.510Z,20.50
2022-08-12T11:46:52.838Z,20.60
2022-08-12T11:49:30.532Z,20.70
2022-08-12T11:52:02.993Z,20.70
2022-08-12T11:54:31.649Z,20.90
2022-08-12T11:57:02.292Z,21.10
2022-08-12T12:02:20.417Z,21.30
2022-08-12T12:04:52.622Z,21.50
2022-08-12T12:08:39.005Z,21.60
2022-08-12T12:10:13.191Z,21.70
2022-08-12T12:12:49.683Z,21.70
2022-08-12T12:15:25.049Z,21.70
2022-08-12T12:18:06.532Z,21.70
2022-08-12T12:20:35.217Z,21.70
2022-08-12T12:23:04.102Z,21.60
2022-08-12T12:25:59.729Z,21.60
2022-08-12T12:28:37.131Z,21.60
2022-08-12T12:31:15.041Z,21.60
2022-08-12T12:33:58.318Z,21.60
2022-08-12T12:36:29.990Z,21.60
2022-08-12T12:38:59.969Z,21.70
2022-08-12T12:42:43.677Z,21.70
2022-08-12T12:44:26.015Z,21.70
2022-08-12T12:47:29.374Z,21.70
2022-08-12T12:49:53.753Z,21.80
2022-08-12T12:52:21.547Z,21.80
2022-08-12T12:54:55.856Z,21.70
2022-08-12T12:57:58.937Z,21.60
2022-08-12T13:00:15.628Z,21.60
2022-08-12T13:02:55.572Z,21.60
2022-08-12T13:05:27.601Z,21.50
2022-08-12T13:08:01.693Z,21.60
2022-08-12T13:10:37.105Z,21.60
2022-08-12T13:14:07.579Z,21.60
2022-08-12T13:15:59.359Z,21.60
2022-08-12T13:18:31.669Z,21.50
2022-08-12T13:20:59.368Z,21.50
2022-08-12T13:23:36.236Z,21.50
2022-08-12T13:26:05.457Z,21.50
2022-08-12T13:28:33.038Z,21.50
2022-08-12T13:31:00.709Z,21.50
2022-08-12T13:33:29.327Z,21.50
2022-08-12T13:36:18.233Z,21.60
2022-08-12T13:38:52.164Z,21.70
2022-08-12T13:41:34.208Z,21.70
2022-08-12T13:44:06.580Z,21.80
2022-08-12T13:46:40.960Z,21.90
2022-08-12T13:49:11.643Z,22.10
2022-08-12T13:51:51.323Z,22.20
2022-08-12T13:54:19.663Z,22.30
2022-08-12T13:56:50.200Z,22.30
2022-08-12T13:59:20.530Z,22.40
2022-08-12T14:01:53.612Z,22.40
2022-08-12T14:04:24.816Z,22.40
2022-08-12T14:06:54.111Z,22.40
2022-08-12T14:09:21.877Z,22.40
2022-08-12T14:11:58.340Z,22.40
2022-08-12T14:14:31.553Z,22.40
2022-08-12T14:17:10.372Z,22.50
2022-08-12T14:20:00.533Z,22.50
2022-08-12T14:22:30.374Z,22.60
2022-08-12T14:25:00.518Z,22.70
2022-08-12T14:28:03.611Z,22.70
2022-08-12T14:30:28.782Z,22.80
2022-08-12T14:32:57.916Z,22.80
2022-08-12T14:35:25.427Z,22.90
2022-08-12T14:37:56.753Z,23.00
2022-08-12T14:40:29.273Z,23.20
2022-08-12T14:42:58.463Z,23.60
2022-08-12T14:45:45.292Z,24.30
2022-08-12T14:48:16.136Z,24.60
2022-08-12T14:51:30.369Z,24.80
2022-08-12T14:59:56.924Z,26.40
2022-08-12T15:02:17.304Z,26.70
2022-08-12T15:04:45.432Z,26.80
2022-08-12T15:07:33.828Z,26.40
2022-08-12T15:10:01.698Z,26.10
2022-08-12T15:12:30.247Z,25.80
2022-08-12T15:14:59.986Z,25.50
2022-08-12T15:17:37.873Z,25.30
2022-08-12T15:20:32.040Z,25.20
2022-08-12T15:22:58.198Z,25.10
2022-08-12T15:25:27.978Z,24.70
2022-08-12T15:28:05.411Z,24.50
2022-08-12T15:30:39.076Z,24.20
2022-08-12T15:33:12.894Z,24.10
2022-08-12T15:35:52.010Z,23.90
2022-08-12T15:38:25.096Z,23.70
2022-08-12T15:40:54.716Z,23.50
2022-08-12T15:43:51.020Z,23.40
2022-08-12T15:46:15.094Z,23.20
2022-08-12T15:48:47.733Z,23.10
2022-08-12T15:51:59.946Z,22.90
2022-08-12T15:54:33.612Z,22.90
2022-08-12T15:57:07.818Z,22.70
2022-08-12T15:59:51.377Z,22.70
2022-08-12T16:02:29.925Z,22.60
2022-08-12T16:04:58.394Z,22.60
2022-08-12T16:07:31.060Z,22.60
2022-08-12T16:10:09.286Z,22.60
2022-08-12T16:12:55.064Z,22.60
2022-08-12T16:15:26.390Z,22.70
2022-08-12T16:18:18.522Z,22.90
2022-08-12T16:20:46.783Z,23.00
2022-08-12T16:23:26.483Z,23.00
2022-08-12T16:26:15.259Z,23.00
2022-08-12T16:28:47.618Z,22.90
2022-08-12T16:31:23.257Z,22.80
2022-08-12T16:33:56.751Z,22.70
2022-08-12T16:36:30.504Z,22.70
2022-08-12T16:39:01.403Z,22.50
2022-08-12T16:41:37.981Z,22.40
2022-08-12T16:44:09.033Z,22.30
2022-08-12T16:46:39.828Z,22.20
2022-08-12T16:49:09.176Z,22.10
2022-08-12T16:51:45.824Z,22.10
2022-08-12T16:54:36.206Z,22.00
2022-08-12T16:57:09.638Z,21.90
2022-08-12T16:59:53.318Z,21.90
2022-08-12T17:02:31.951Z,21.80
2022-08-12T17:05:04.878Z,21.80
2022-08-12T17:07:38.254Z,21.80
2022-08-12T17:10:18.338Z,21.70
2022-08-12T17:13:09.885Z,21.70
2022-08-12T17:15:57.267Z,21.70
2022-08-12T17:18:45.594Z,21.70
2022-08-12T17:21:20.082Z,21.60
2022-08-12T17:23:53.431Z,21.50
2022-08-12T17:26:27.955Z,21.50
2022-08-12T17:29:00.810Z,21.40
2022-08-12T17:31:59.365Z,21.40
2022-08-12T17:34:36.439Z,21.30
2022-08-12T17:37:07.410Z,21.20
2022-08-12T17:40:13.611Z,21.20
2022-08-12T17:42:32.488Z,21.20
2022-08-12T17:45:17.216Z,21.10
2022-08-12T17:48:01.018Z,21.10
2022-08-12T17:50:32.171Z,21.00
2022-08-12T17:53:01.163Z,21.00
2022-08-12T17:55:40.602Z,21.00
2022-08-12T17:58:36.849Z,21.00
2022-08-12T18:01:11.370Z,20.90
2022-08-12T18:04:05.090Z,20.90
2022-08-12T18:06:28.556Z,20.90
2022-08-12T18:09:08.623Z,20.90
2022-08-12T18:12:04.069Z,20.90
2022-08-12T18:14:36.655Z,20.80
2022-08-12T18:17:08.758Z,20.80
2022-08-12T18:20:03.727Z,20.80
2022-08-12T18:22:30.452Z,20.80
2022-08-12T18:25:04.229Z,20.70
2022-08-12T18:27:44.558Z,20.70
2022-08-12T18:30:20.503Z,20.70
2022-08-12T18:33:04.638Z,20.70
2022-08-12T18:35:47.064Z,20.70
2022-08-12T18:38:24.601Z,20.70
2022-08-12T18:41:20.930Z,20.70
2022-08-12T18:43:59.736Z,20.80
2022-08-12T18:46:35.961Z,20.80
2022-08-12T18:49:18.853Z,20.80
2022-08-12T18:52:02.263Z,20.80
2022-08-12T18:54:35.354Z,20.80
2022-08-12T18:57:19.572Z,20.70
2022-08-12T19:00:01.422Z,20.70
2022-08-12T19:02:33.923Z,20.60
2022-08-12T19:05:11.123Z,20.50
2022-08-12T19:08:00.939Z,20.50
2022-08-12T19:10:32.791Z,20.50
2022-08-12T19:13:23.114Z,20.50
2022-08-12T19:15:57.781Z,20.50
2022-08-12T19:18:29.824Z,20.50
2022-08-12T19:21:12.041Z,20.50
2022-08-12T19:23:44.528Z,20.50
2022-08-12T19:26:12.433Z,20.40
2022-08-12T19:28:41.459Z,20.40
2022-08-12T19:31:59.701Z,20.30
2022-08-12T19:38:03.870Z,20.30
2022-08-12T19:40:34.842Z,20.30
2022-08-12T19:43:19.337Z,20.40
2022-08-12T19:45:56.624Z,20.40
2022-08-12T19:48:30.785Z,20.40
2022-08-12T19:51:22.562Z,20.40
2022-08-12T19:53:57.445Z,20.50
2022-08-12T19:56:29.599Z,20.50
2022-08-12T19:59:18.709Z,20.50
2022-08-12T20:02:01.504Z,20.50
2022-08-12T20:04:39.036Z,20.40
2022-08-12T20:07:22.907Z,20.40
2022-08-12T20:09:53.922Z,20.40
2022-08-12T20:12:31.807Z,20.40
2022-08-12T20:15:05.443Z,20.40
2022-08-12T20:17:36.495Z,20.40
2022-08-12T20:20:27.779Z,20.40
2022-08-12T20:22:57.357Z,20.30
2022-08-12T20:25:51.837Z,20.30
2022-08-12T20:28:13.374Z,20.30
2022-08-12T20:30:53.380Z,20.30
2022-08-12T20:33:32.559Z,20.20
2022-08-12T20:36:41.168Z,20.30
2022-08-12T20:39:34.323Z,20.30
2022-08-12T20:41:59.002Z,20.30
2022-08-12T20:44:27.310Z,20.30
2022-08-12T20:46:58.299Z,20.30
2022-08-12T20:49:25.974Z,20.30
2022-08-12T20:52:01.881Z,20.30
2022-08-12T20:54:34.070Z,20.30
2022-08-12T20:57:07.531Z,20.40
2022-08-12T20:59:38.799Z,20.40
2022-08-12T21:02:15.963Z,20.40
2022-08-12T21:05:01.808Z,20.40
2022-08-12T21:07:51.482Z,20.40
2022-08-12T21:10:21.005Z,20.40
2022-08-12T21:12:50.962Z,20.40
2022-08-12T21:15:24.073Z,20.40
2022-08-12T21:18:09.193Z,20.30
2022-08-12T21:20:44.579Z,20.40
2022-08-12T21:23:15.733Z,20.30
2022-08-12T21:25:48.260Z,20.30
2022-08-12T21:28:21.106Z,20.30
2022-08-12T21:31:11.245Z,20.30
2022-08-12T21:33:58.417Z,20.30
2022-08-12T21:36:34.459Z,20.30
2022-08-12T21:39:18.974Z,20.30
2022-08-12T21:42:00.464Z,20.30
2022-08-12T21:45:43.866Z,20.30
2022-08-12T21:47:22.518Z,20.30
2022-08-12T21:50:06.547Z,20.30
2022-08-12T21:52:39.404Z,20.30
2022-08-12T21:55:17.935Z,20.30
2022-08-12T21:57:53.607Z,20.30
2022-08-12T22:00:32.907Z,20.30
2022-08-12T22:04:03.647Z,20.20
2022-08-12T22:06:31.135Z,20.20
2022-08-12T22:09:15.746Z,20.20
2022-08-12T22:11:58.638Z,20.20
2022-08-12T22:14:28.920Z,20.20
2022-08-12T22:16:57.704Z,20.20
2022-08-12T22:19:25.211Z,20.10
2022-08-12T22:21:56.302Z,20.10
2022-08-12T22:24:29.910Z,20.10
2022-08-12T22:27:08.243Z,20.10
2022-08-12T22:30:16.093Z,20.00
2022-08-12T22:32:50.787Z,20.00
2022-08-12T22:35:55.396Z,20.00
2022-08-12T22:38:21.393Z,20.00
2022-08-12T22:40:50.855Z,20.00
2022-08-12T22:43:44.736Z,20.00
2022-08-12T22:46:52.942Z,20.00
2022-08-12T22:49:36.580Z,20.00
2022-08-12T22:52:12.240Z,20.00
2022-08-12T22:54:46.449Z,20.10
2022-08-12T22:57:53.972Z,20.10
2022-08-12T23:00:24.108Z,20.10
2022-08-12T23:02:56.948Z,20.10
2022-08-12T23:05:56.772Z,20.10
2022-08-12T23:08:22.260Z,20.10
2022-08-12T23:10:51.354Z,20.10
2022-08-12T23:13:43.317Z,20.10
2022-08-12T23:16:28.003Z,20.10
2022-08-12T23:18:59.686Z,20.10
2022-08-12T23:21:40.364Z,20.10
2022-08-12T23:24:17.090Z,20.10
2022-08-12T23:27:18.344Z,20.10
2022-08-12T23:30:17.823Z,20.10
2022-08-12T23:32:37.545Z,20.10
2022-08-12T23:35:07.508Z,20.10
2022-08-12T23:37:46.693Z,20.00
2022-08-12T23:40:17.864Z,20.10
2022-08-12T23:42:45.881Z,20.10
2022-08-12T23:45:20.715Z,20.10
2022-08-12T23:48:00.679Z,20.00
2022-08-12T23:50:34.200Z,20.00
2022-08-12T23:53:14.037Z,20.10
2022-08-12T23:55:50.877Z,20.00
2022-08-12T23:58:23.199Z,19.90
